모두
Camden Airport (Camden, New South Wales) CDU 기상
|
Camden, New South Wales (CDU / YSCN)
맑은 하늘
바람이 붐 |
|
27 °C |
CDU 터미널 지역 예측
| Here is the undecoded forecast: 2026/09/01 23:11 YSCN 312311Z 0100/0112 35007KT CAVOK FM010400 30014KT CAVOK FM010800 32005KT CAVOK RMK FM010900 MOD TURB BLW 5000FT T 18 25 25 17 Q 1024 1020 1019 1019 |
최근 CDU METAR 이력
| Date | Time (AEST) | Flight Rules | Wind Dir. | Speed | Type | Height AGL (ft) | Visibility | Temp (°C) | Temp (°F) | Dew Point (°C) | Dew Point (°F) | Rel. Humid. | Pressure | Density Altitude | Remarks |
|---|---|---|---|---|---|---|---|---|---|---|---|---|---|---|---|
| 02-9월 | 12:00 | VFR | 330° | 12 kt | 10000 meters | 27° | 80° | 8° | 46° | 30% | 1013 mb | 1,676 ft | |||
| 02-9월 | 11:00 | VFR | 310° | 11 kt | 10000 meters | 26° | 78° | 9° | 48° | 34% | 1015 mb | 1,497 ft | |||
| 02-9월 | 10:00 | VFR | 340° | 9 kt | 10000 meters | 24° | 75° | 10° | 50° | 41% | 1016 mb | 1,228 ft | |||
| 02-9월 | 09:00 | VFR | 310° | 2 kt | 10000 meters | 19° | 66° | 11° | 51° | 60% | 1016 mb | 628 ft | |||
| 02-9월 | 08:00 | VFR | 130° | 2 kt | 10000 meters | 15° | 59° | 10° | 50° | 72% | 1016 mb | 148 ft | |||
| 02-9월 | 07:00 | VFR | Calm | Few |
10,500 |
10000 meters | 11° | 51° | 9° | 48° | 87% | 1016 mb | -332 ft | ||
| 02-9월 | 06:00 | VFR | 130° | 4 kt | Broken Broken |
9,900 11,500 |
10000 meters | 11° | 51° | 9° | 48° | 87% | 1016 mb | -332 ft | |
| 02-9월 | 05:00 | VFR | 210° | 2 kt | 10000 meters | 10° | 50° | 9° | 48° | 93% | 1016 mb | -452 ft | |||
| 02-9월 | 04:00 | VFR | Calm | 10000 meters | 9° | 48° | 9° | 48° | 100% | 1015 mb | -543 ft | ||||
| 02-9월 | 03:00 | VFR | 180° | 4 kt | 10000 meters | 9° | 48° | 8° | 46° | 93% | 1015 mb | -543 ft | |||
| 02-9월 | 02:00 | VFR | 320° | 3 kt | 10000 meters | 9° | 48° | 8° | 46° | 93% | 1016 mb | -572 ft | |||
| 02-9월 | 01:00 | VFR | 230° | 1 kt | 10000 meters | 9° | 48° | 7° | 44° | 87% | 1017 mb | -602 ft | |||
| 02-9월 | 00:00 | VFR | Calm | 10000 meters | 9° | 48° | 7° | 44° | 87% | 1017 mb | -602 ft | ||||
| 01-9월 | 23:00 | VFR | 200° | 3 kt | 10000 meters | 11° | 51° | 7° | 44° | 76% | 1018 mb | -392 ft | |||
| 01-9월 | 22:00 | VFR | 250° | 3 kt | 10000 meters | 13° | 55° | 8° | 46° | 72% | 1018 mb | -152 ft | |||
| 01-9월 | 21:00 | VFR | 350° | 3 kt | 10000 meters | 14° | 57° | 7° | 44° | 63% | 1019 mb | -61 ft | |||
| 01-9월 | 20:00 | VFR | 350° | 6 kt | 10000 meters | 16° | 60° | 7° | 44° | 55% | 1019 mb | 179 ft | |||
| 01-9월 | 19:00 | VFR | 340° | 4 kt | 10000 meters | 19° | 66° | 5° | 41° | 40% | 1019 mb | 539 ft | |||
| 01-9월 | 18:00 | VFR | 310° | 6 kt | 10000 meters | 20° | 68° | 5° | 41° | 37% | 1018 mb | 688 ft | |||
| 01-9월 | 17:00 | VFR | 310° | 12 kt | 10000 meters | 24° | 75° | 4° | 39° | 27% | 1018 mb | 1,168 ft | |||
| 01-9월 | 16:00 | VFR | 310° | 11 kt | Few |
9,000 |
10000 meters | 26° | 78° | 4° | 39° | 24% | 1018 mb | 1,408 ft | |
| 01-9월 | 15:00 | VFR | 320° | 11 kt | 10000 meters | 26° | 78° | 6° | 42° | 28% | 1018 mb | 1,408 ft | |||
| 01-9월 | 14:00 | VFR | 310° | 10 kt | 10000 meters | 26° | 78° | 2° | 35° | 21% | 1019 mb | 1,379 ft | |||
| 01-9월 | 13:00 | VFR | 350° | 8 kt | 10000 meters | 26° | 78° | 6° | 42° | 28% | 1020 mb | 1,349 ft |
로그인
| 귀하의 브라우저는 지원되지 않습니다.. 브라우저를 업그레이드하세요 |
